Aérodrome :
LOGIN :

S'inscrire | Disclaimer

   EN    FR    IT 

 










Légende :    VFR   VFR Marginal   IFR   IFR Intensif   IFR Très Intensif
Visi : 
Plafond : 
>= 8 km
>= 3000ft
5 à 8 km
1000 à 3000 ft
1500m à 5 km
500 à 1000 ft
800 à 1500m
200 à 500 ft
< 800m
< 200 ft
Symboles :   Orages  Brouillard  Fortes neiges  Fortes précipitations  Vent > 20 kt
SIGMETs :   Divers  Orages  Givrage  Turbulence  Onde Orograph.  Cendres Volcan.







- Altitude de l'aérodrome : 32 ft
- Code IATA : LKZ


EGUL - RAF Lakenheath

DERNIER METAR :
  • 170056Z AUTO 21015G25KT 9999 CLR 13/08 A3000 RMK AO2 PK WND 22026/05 SLP162 T01260081

METARs EXPIRÉS :
  • 162356Z AUTO 22017G24KT 9999 CLR 13/09 A2999 RMK AO2 PK WND 22027/20 SLP159 T01310086 10163 20131 402320124 52010
  • 162256Z AUTO 21015G25KT 9999 CLR 14/09 A2998 RMK AO2 PK WND 21028/16 SLP155 T01360088

TAF AMD TAF EGUL
Valide du 17 à 00h jusqu'au 18 à 02h UTC


170054Z 1700/1802 22015G25KT 9999 SKC QNH2994INS
BECMG 1711/1712 25015G25KT 9999 FEW035 SCT100 QNH3008INS
BECMG 1715/1716 26009KT 9999 FEW040 BKN080 QNH3000INS
BECMG 1719/1720 VRB06KT 9999 BKN045 QNH2994INS TX18/1712Z TN09/1706Z
Pas de NOTAMs connus pour ce terrain.
3 SIGMETs publiés pour la FIR London (EGTT) :
 
Turbulence forte
EGTT SIGMET 10 VALID 162300/170100 EGRR
EGTT LONDON FIR SEV TURB FCST NW OF LINE N4928 W00800 - N5422 E00425 SFC/FL060 MOV N 10KT NC=
Turbulence forte
EGTT SIGMET 02 VALID 170100/170500 EGRR
EGTT LONDON FIR SEV TURB FCST NW OF LINE N5008 W00800 - N5411 E00416 SFC/FL060 MOV N 15KT NC=
Onde orographique forte
EGTT SIGMET 01 VALID 170100/170500 EGRR
EGTT LONDON FIR SEV MTW FCST N OF LINE N5029 W00800 - N5205 E00228 FL030/200 MOV N 15KT NC=



MET'MAP, la Météo Aéronautique d'un coup d'oeil ! - Copyright ORBIFLY Décembre 2007 - Disclaimer

ORBIFLY MET'MAP TEAM :

Programmation & Développement : Alexandra Zaïnal
Conception & Développement : Baudouin d'Aumeries
Co-Programmation & Développement : Marc-Olivier Méhu
Soutien technique & logistique : Manuel Goepfert

Contact : metmap@orbifly.com




SOURCES & CREDITS :

   NOAA